sensor_id;sensor_type;location;lat;lon;timestamp;temperature;humidity
23371;DHT22;11858;51.056;3.712;2022-09-01T00:01:51;22.00;98.20
23371;DHT22;11858;51.056;3.712;2022-09-01T00:04:22;22.00;98.50
23371;DHT22;11858;51.056;3.712;2022-09-01T00:06:50;22.00;98.40
23371;DHT22;11858;51.056;3.712;2022-09-01T00:09:21;21.70;99.00
23371;DHT22;11858;51.056;3.712;2022-09-01T00:11:51;21.70;99.60
23371;DHT22;11858;51.056;3.712;2022-09-01T00:14:20;21.70;99.70
23371;DHT22;11858;51.056;3.712;2022-09-01T00:16:47;21.70;99.90
23371;DHT22;11858;51.056;3.712;2022-09-01T00:19:14;21.50;99.90
23371;DHT22;11858;51.056;3.712;2022-09-01T00:21:43;21.40;99.90
23371;DHT22;11858;51.056;3.712;2022-09-01T00:24:10;21.30;99.90
23371;DHT22;11858;51.056;3.712;2022-09-01T00:26:37;21.20;99.90
23371;DHT22;11858;51.056;3.712;2022-09-01T00:29:05;21.10;99.90
23371;DHT22;11858;51.056;3.712;2022-09-01T00:31:32;21.20;99.90
23371;DHT22;11858;51.056;3.712;2022-09-01T00:33:59;21.10;99.90
23371;DHT22;11858;51.056;3.712;2022-09-01T00:36:26;21.10;99.90
23371;DHT22;11858;51.056;3.712;2022-09-01T00:38:54;21.10;99.90
23371;DHT22;11858;51.056;3.712;2022-09-01T00:41:24;21.10;99.90
23371;DHT22;11858;51.056;3.712;2022-09-01T00:43:54;20.90;99.90
23371;DHT22;11858;51.056;3.712;2022-09-01T00:46:23;21.00;99.90
23371;DHT22;11858;51.056;3.712;2022-09-01T00:48:57;21.00;99.90
23371;DHT22;11858;51.056;3.712;2022-09-01T00:51:24;20.90;99.90
23371;DHT22;11858;51.056;3.712;2022-09-01T00:53:51;20.80;99.90
23371;DHT22;11858;51.056;3.712;2022-09-01T00:56:18;20.80;99.90
23371;DHT22;11858;51.056;3.712;2022-09-01T00:58:43;20.90;99.90
23371;DHT22;11858;51.056;3.712;2022-09-01T01:01:11;20.70;99.90
23371;DHT22;11858;51.056;3.712;2022-09-01T01:03:37;20.60;99.90
23371;DHT22;11858;51.056;3.712;2022-09-01T01:06:10;20.60;99.90
23371;DHT22;11858;51.056;3.712;2022-09-01T01:08:41;20.60;99.90
23371;DHT22;11858;51.056;3.712;2022-09-01T01:11:14;20.70;99.90
23371;DHT22;11858;51.056;3.712;2022-09-01T01:16:44;20.70;99.90
23371;DHT22;11858;51.056;3.712;2022-09-01T01:22:01;20.80;99.90
23371;DHT22;11858;51.056;3.712;2022-09-01T01:24:46;20.60;99.90
23371;DHT22;11858;51.056;3.712;2022-09-01T01:27:12;20.70;99.90
23371;DHT22;11858;51.056;3.712;2022-09-01T01:29:42;20.80;99.90
23371;DHT22;11858;51.056;3.712;2022-09-01T01:32:09;20.90;99.90
23371;DHT22;11858;51.056;3.712;2022-09-01T01:34:36;20.70;99.90
23371;DHT22;11858;51.056;3.712;2022-09-01T01:37:04;20.80;99.90
23371;DHT22;11858;51.056;3.712;2022-09-01T01:39:30;20.80;99.90
23371;DHT22;11858;51.056;3.712;2022-09-01T01:41:58;20.70;99.90
23371;DHT22;11858;51.056;3.712;2022-09-01T01:44:26;20.80;99.90
23371;DHT22;11858;51.056;3.712;2022-09-01T01:46:55;20.70;99.90
23371;DHT22;11858;51.056;3.712;2022-09-01T01:49:24;20.70;99.90
23371;DHT22;11858;51.056;3.712;2022-09-01T01:51:54;20.60;99.90
23371;DHT22;11858;51.056;3.712;2022-09-01T01:54:23;20.50;99.90
23371;DHT22;11858;51.056;3.712;2022-09-01T01:56:50;20.70;99.90
23371;DHT22;11858;51.056;3.712;2022-09-01T01:59:16;20.60;99.90
23371;DHT22;11858;51.056;3.712;2022-09-01T02:01:44;20.50;99.90
23371;DHT22;11858;51.056;3.712;2022-09-01T02:04:19;20.50;99.90
23371;DHT22;11858;51.056;3.712;2022-09-01T02:06:45;20.50;99.90
23371;DHT22;11858;51.056;3.712;2022-09-01T02:09:18;20.50;99.90
23371;DHT22;11858;51.056;3.712;2022-09-01T02:11:44;20.50;99.90
23371;DHT22;11858;51.056;3.712;2022-09-01T02:14:10;20.40;99.90
23371;DHT22;11858;51.056;3.712;2022-09-01T02:16:38;20.30;99.90
23371;DHT22;11858;51.056;3.712;2022-09-01T02:19:05;20.30;99.90
23371;DHT22;11858;51.056;3.712;2022-09-01T02:21:33;20.30;99.90
23371;DHT22;11858;51.056;3.712;2022-09-01T02:24:02;20.20;99.90
23371;DHT22;11858;51.056;3.712;2022-09-01T02:26:30;20.50;99.90
23371;DHT22;11858;51.056;3.712;2022-09-01T02:29:03;20.50;99.70
23371;DHT22;11858;51.056;3.712;2022-09-01T02:31:32;20.40;99.90
23371;DHT22;11858;51.056;3.712;2022-09-01T02:34:01;20.50;99.50
23371;DHT22;11858;51.056;3.712;2022-09-01T02:36:29;20.40;99.50
23371;DHT22;11858;51.056;3.712;2022-09-01T02:38:57;20.30;99.30
23371;DHT22;11858;51.056;3.712;2022-09-01T02:41:23;20.40;99.40
23371;DHT22;11858;51.056;3.712;2022-09-01T02:43:53;20.40;99.40
23371;DHT22;11858;51.056;3.712;2022-09-01T02:46:20;20.30;99.50
23371;DHT22;11858;51.056;3.712;2022-09-01T02:48:48;20.30;99.50
23371;DHT22;11858;51.056;3.712;2022-09-01T02:51:18;20.30;99.50
23371;DHT22;11858;51.056;3.712;2022-09-01T02:53:46;20.40;99.10
23371;DHT22;11858;51.056;3.712;2022-09-01T02:56:16;20.50;98.80
23371;DHT22;11858;51.056;3.712;2022-09-01T02:58:45;20.40;98.90
23371;DHT22;11858;51.056;3.712;2022-09-01T03:01:26;20.50;98.70
23371;DHT22;11858;51.056;3.712;2022-09-01T03:03:56;20.50;98.60
23371;DHT22;11858;51.056;3.712;2022-09-01T03:06:24;20.30;99.20
23371;DHT22;11858;51.056;3.712;2022-09-01T03:08:52;20.30;99.30
23371;DHT22;11858;51.056;3.712;2022-09-01T03:11:18;20.40;99.40
23371;DHT22;11858;51.056;3.712;2022-09-01T03:13:45;20.30;99.10
23371;DHT22;11858;51.056;3.712;2022-09-01T03:16:13;20.20;99.30
23371;DHT22;11858;51.056;3.712;2022-09-01T03:18:39;20.20;99.70
23371;DHT22;11858;51.056;3.712;2022-09-01T03:21:07;20.10;99.90
23371;DHT22;11858;51.056;3.712;2022-09-01T03:23:33;20.00;99.90
23371;DHT22;11858;51.056;3.712;2022-09-01T03:25:59;19.90;99.90
23371;DHT22;11858;51.056;3.712;2022-09-01T03:28:26;19.90;99.90
23371;DHT22;11858;51.056;3.712;2022-09-01T03:30:53;20.10;99.90
23371;DHT22;11858;51.056;3.712;2022-09-01T03:33:23;20.20;99.90
23371;DHT22;11858;51.056;3.712;2022-09-01T03:35:50;20.10;99.90
23371;DHT22;11858;51.056;3.712;2022-09-01T03:38:16;20.20;99.90
23371;DHT22;11858;51.056;3.712;2022-09-01T03:40:54;20.10;99.90
23371;DHT22;11858;51.056;3.712;2022-09-01T03:43:33;19.90;99.90
23371;DHT22;11858;51.056;3.712;2022-09-01T03:45:59;19.90;99.90
23371;DHT22;11858;51.056;3.712;2022-09-01T03:48:27;19.90;99.90
23371;DHT22;11858;51.056;3.712;2022-09-01T03:50:55;19.70;99.90
23371;DHT22;11858;51.056;3.712;2022-09-01T03:53:22;19.90;99.90
23371;DHT22;11858;51.056;3.712;2022-09-01T03:55:52;19.70;99.90
23371;DHT22;11858;51.056;3.712;2022-09-01T03:58:19;19.80;99.90
23371;DHT22;11858;51.056;3.712;2022-09-01T04:00:48;19.90;99.90
23371;DHT22;11858;51.056;3.712;2022-09-01T04:03:24;19.70;99.90
23371;DHT22;11858;51.056;3.712;2022-09-01T04:05:52;19.70;99.90
23371;DHT22;11858;51.056;3.712;2022-09-01T04:08:20;19.60;99.90
23371;DHT22;11858;51.056;3.712;2022-09-01T04:10:53;19.50;99.90
23371;DHT22;11858;51.056;3.712;2022-09-01T04:13:27;19.50;99.90
23371;DHT22;11858;51.056;3.712;2022-09-01T04:15:55;19.40;99.90
23371;DHT22;11858;51.056;3.712;2022-09-01T04:18:22;19.40;99.90
23371;DHT22;11858;51.056;3.712;2022-09-01T04:20:51;19.30;99.90
23371;DHT22;11858;51.056;3.712;2022-09-01T04:23:25;19.10;99.90
23371;DHT22;11858;51.056;3.712;2022-09-01T04:26:04;19.20;99.90
23371;DHT22;11858;51.056;3.712;2022-09-01T04:28:45;19.10;99.90
23371;DHT22;11858;51.056;3.712;2022-09-01T04:31:14;19.00;99.90
23371;DHT22;11858;51.056;3.712;2022-09-01T04:33:44;19.00;99.90
23371;DHT22;11858;51.056;3.712;2022-09-01T04:36:18;18.90;99.90
23371;DHT22;11858;51.056;3.712;2022-09-01T04:38:45;19.00;99.90
23371;DHT22;11858;51.056;3.712;2022-09-01T04:41:12;18.90;99.90
23371;DHT22;11858;51.056;3.712;2022-09-01T04:43:43;18.90;99.90
23371;DHT22;11858;51.056;3.712;2022-09-01T04:46:10;18.70;99.90
23371;DHT22;11858;51.056;3.712;2022-09-01T04:48:39;18.60;99.90
23371;DHT22;11858;51.056;3.712;2022-09-01T04:51:08;18.60;99.90
23371;DHT22;11858;51.056;3.712;2022-09-01T04:53:35;18.60;99.90
23371;DHT22;11858;51.056;3.712;2022-09-01T04:56:03;18.50;99.90
23371;DHT22;11858;51.056;3.712;2022-09-01T04:58:29;18.50;99.90
23371;DHT22;11858;51.056;3.712;2022-09-01T05:00:55;18.60;99.90
23371;DHT22;11858;51.056;3.712;2022-09-01T05:03:21;18.70;99.90
23371;DHT22;11858;51.056;3.712;2022-09-01T05:05:49;18.60;99.90
23371;DHT22;11858;51.056;3.712;2022-09-01T05:08:17;18.60;99.90
23371;DHT22;11858;51.056;3.712;2022-09-01T05:10:47;18.60;99.90
23371;DHT22;11858;51.056;3.712;2022-09-01T05:13:19;18.60;99.90
23371;DHT22;11858;51.056;3.712;2022-09-01T05:15:47;18.60;99.90
23371;DHT22;11858;51.056;3.712;2022-09-01T05:18:15;18.40;99.90
23371;DHT22;11858;51.056;3.712;2022-09-01T05:20:48;18.50;99.90
23371;DHT22;11858;51.056;3.712;2022-09-01T05:23:15;18.40;99.90
23371;DHT22;11858;51.056;3.712;2022-09-01T05:25:51;18.50;99.90
23371;DHT22;11858;51.056;3.712;2022-09-01T05:28:20;18.60;99.90
23371;DHT22;11858;51.056;3.712;2022-09-01T05:30:51;18.50;99.90
23371;DHT22;11858;51.056;3.712;2022-09-01T05:33:20;18.50;99.90
23371;DHT22;11858;51.056;3.712;2022-09-01T05:35:55;18.50;99.90
23371;DHT22;11858;51.056;3.712;2022-09-01T05:38:23;18.40;99.90
23371;DHT22;11858;51.056;3.712;2022-09-01T05:41:00;18.30;99.90
23371;DHT22;11858;51.056;3.712;2022-09-01T05:43:29;18.40;99.90
23371;DHT22;11858;51.056;3.712;2022-09-01T05:46:00;18.50;99.90
23371;DHT22;11858;51.056;3.712;2022-09-01T05:48:28;18.40;99.90
23371;DHT22;11858;51.056;3.712;2022-09-01T05:50:57;18.30;99.90
23371;DHT22;11858;51.056;3.712;2022-09-01T05:53:25;18.60;99.90
23371;DHT22;11858;51.056;3.712;2022-09-01T05:55:53;18.40;99.90
23371;DHT22;11858;51.056;3.712;2022-09-01T05:58:23;18.50;99.90
23371;DHT22;11858;51.056;3.712;2022-09-01T06:00:52;18.50;99.90
23371;DHT22;11858;51.056;3.712;2022-09-01T06:03:20;18.70;99.90
23371;DHT22;11858;51.056;3.712;2022-09-01T06:05:47;18.60;99.90
23371;DHT22;11858;51.056;3.712;2022-09-01T06:08:24;18.60;99.90
23371;DHT22;11858;51.056;3.712;2022-09-01T06:10:50;18.40;99.90
23371;DHT22;11858;51.056;3.712;2022-09-01T06:13:18;18.60;99.90
23371;DHT22;11858;51.056;3.712;2022-09-01T06:15:50;18.70;99.90
23371;DHT22;11858;51.056;3.712;2022-09-01T06:18:19;18.90;99.90
23371;DHT22;11858;51.056;3.712;2022-09-01T06:20:47;18.70;99.90
23371;DHT22;11858;51.056;3.712;2022-09-01T06:23:14;18.90;99.90
23371;DHT22;11858;51.056;3.712;2022-09-01T06:25:45;18.80;99.90
23371;DHT22;11858;51.056;3.712;2022-09-01T06:28:20;18.90;99.90
23371;DHT22;11858;51.056;3.712;2022-09-01T06:30:48;19.00;99.90
23371;DHT22;11858;51.056;3.712;2022-09-01T06:33:16;19.10;99.90
23371;DHT22;11858;51.056;3.712;2022-09-01T06:35:43;19.20;99.90
23371;DHT22;11858;51.056;3.712;2022-09-01T06:38:12;19.10;99.90
23371;DHT22;11858;51.056;3.712;2022-09-01T06:40:43;19.00;99.90
23371;DHT22;11858;51.056;3.712;2022-09-01T06:43:11;19.00;99.90
23371;DHT22;11858;51.056;3.712;2022-09-01T06:45:41;19.20;99.90
23371;DHT22;11858;51.056;3.712;2022-09-01T06:48:09;19.30;99.90
23371;DHT22;11858;51.056;3.712;2022-09-01T06:50:40;19.50;99.90
23371;DHT22;11858;51.056;3.712;2022-09-01T06:53:07;19.60;99.90
23371;DHT22;11858;51.056;3.712;2022-09-01T06:55:41;19.60;99.90
23371;DHT22;11858;51.056;3.712;2022-09-01T06:58:10;19.60;99.90
23371;DHT22;11858;51.056;3.712;2022-09-01T07:00:41;19.70;99.90
23371;DHT22;11858;51.056;3.712;2022-09-01T07:03:12;19.90;99.90
23371;DHT22;11858;51.056;3.712;2022-09-01T07:05:47;20.00;99.90
23371;DHT22;11858;51.056;3.712;2022-09-01T07:08:18;20.00;99.90
23371;DHT22;11858;51.056;3.712;2022-09-01T07:10:50;20.00;99.90
23371;DHT22;11858;51.056;3.712;2022-09-01T07:13:21;20.10;99.90
23371;DHT22;11858;51.056;3.712;2022-09-01T07:15:51;20.20;99.90
23371;DHT22;11858;51.056;3.712;2022-09-01T07:18:23;20.30;99.90
23371;DHT22;11858;51.056;3.712;2022-09-01T07:20:53;20.60;99.90
23371;DHT22;11858;51.056;3.712;2022-09-01T07:23:20;20.70;99.90
23371;DHT22;11858;51.056;3.712;2022-09-01T07:25:54;20.80;99.90
23371;DHT22;11858;51.056;3.712;2022-09-01T07:28:22;21.00;99.90
23371;DHT22;11858;51.056;3.712;2022-09-01T07:31:02;21.30;99.90
23371;DHT22;11858;51.056;3.712;2022-09-01T07:33:34;21.90;99.90
23371;DHT22;11858;51.056;3.712;2022-09-01T07:36:00;22.30;99.90
23371;DHT22;11858;51.056;3.712;2022-09-01T07:38:28;22.60;99.90
23371;DHT22;11858;51.056;3.712;2022-09-01T07:40:55;23.10;99.90
23371;DHT22;11858;51.056;3.712;2022-09-01T07:43:23;23.50;99.90
23371;DHT22;11858;51.056;3.712;2022-09-01T07:45:55;23.90;99.30
23371;DHT22;11858;51.056;3.712;2022-09-01T07:48:26;24.50;97.60
23371;DHT22;11858;51.056;3.712;2022-09-01T07:50:54;24.90;96.30
23371;DHT22;11858;51.056;3.712;2022-09-01T07:53:26;25.40;94.70
23371;DHT22;11858;51.056;3.712;2022-09-01T07:55:57;25.60;93.60
23371;DHT22;11858;51.056;3.712;2022-09-01T07:58:25;26.10;92.50
23371;DHT22;11858;51.056;3.712;2022-09-01T08:00:59;26.70;91.00
23371;DHT22;11858;51.056;3.712;2022-09-01T08:03:27;27.30;88.80
23371;DHT22;11858;51.056;3.712;2022-09-01T08:05:54;27.70;85.00
23371;DHT22;11858;51.056;3.712;2022-09-01T08:08:25;28.10;82.30
23371;DHT22;11858;51.056;3.712;2022-09-01T08:10:51;28.80;80.70
23371;DHT22;11858;51.056;3.712;2022-09-01T08:13:19;29.00;78.60
23371;DHT22;11858;51.056;3.712;2022-09-01T08:15:44;29.60;76.10
23371;DHT22;11858;51.056;3.712;2022-09-01T08:18:11;30.00;73.90
23371;DHT22;11858;51.056;3.712;2022-09-01T08:20:38;30.30;72.30
23371;DHT22;11858;51.056;3.712;2022-09-01T08:23:10;30.60;71.20
23371;DHT22;11858;51.056;3.712;2022-09-01T08:25:36;31.30;68.60
23371;DHT22;11858;51.056;3.712;2022-09-01T08:28:03;31.90;67.30
23371;DHT22;11858;51.056;3.712;2022-09-01T08:30:30;32.50;65.30
23371;DHT22;11858;51.056;3.712;2022-09-01T08:33:01;32.70;63.40
23371;DHT22;11858;51.056;3.712;2022-09-01T08:35:27;33.00;62.50
23371;DHT22;11858;51.056;3.712;2022-09-01T08:37:55;33.10;60.80
23371;DHT22;11858;51.056;3.712;2022-09-01T08:40:21;33.40;61.10
23371;DHT22;11858;51.056;3.712;2022-09-01T08:45:30;33.70;59.20
23371;DHT22;11858;51.056;3.712;2022-09-01T08:48:43;34.10;58.60
23371;DHT22;11858;51.056;3.712;2022-09-01T08:51:02;33.80;58.10
23371;DHT22;11858;51.056;3.712;2022-09-01T08:53:42;33.80;58.50
23371;DHT22;11858;51.056;3.712;2022-09-01T08:56:10;33.70;58.40
23371;DHT22;11858;51.056;3.712;2022-09-01T08:58:38;33.50;57.70
23371;DHT22;11858;51.056;3.712;2022-09-01T09:01:10;33.50;58.00
23371;DHT22;11858;51.056;3.712;2022-09-01T09:08:52;35.00;56.20
23371;DHT22;11858;51.056;3.712;2022-09-01T09:17:00;37.10;52.50
23371;DHT22;11858;51.056;3.712;2022-09-01T09:19:34;37.60;51.00
23371;DHT22;11858;51.056;3.712;2022-09-01T09:22:04;37.80;50.50
23371;DHT22;11858;51.056;3.712;2022-09-01T09:27:19;37.90;49.40
23371;DHT22;11858;51.056;3.712;2022-09-01T09:29:47;38.40;49.20
23371;DHT22;11858;51.056;3.712;2022-09-01T09:32:12;38.60;48.20
23371;DHT22;11858;51.056;3.712;2022-09-01T09:34:41;38.70;47.60
23371;DHT22;11858;51.056;3.712;2022-09-01T09:37:23;39.10;47.20
23371;DHT22;11858;51.056;3.712;2022-09-01T09:40:21;39.30;46.60
23371;DHT22;11858;51.056;3.712;2022-09-01T09:43:06;39.90;46.30
23371;DHT22;11858;51.056;3.712;2022-09-01T09:45:35;40.10;45.30
23371;DHT22;11858;51.056;3.712;2022-09-01T09:48:09;39.80;45.30
23371;DHT22;11858;51.056;3.712;2022-09-01T09:50:50;40.00;45.20
23371;DHT22;11858;51.056;3.712;2022-09-01T09:53:21;40.10;44.20
23371;DHT22;11858;51.056;3.712;2022-09-01T09:56:03;40.50;44.00
23371;DHT22;11858;51.056;3.712;2022-09-01T09:58:40;41.10;44.40
23371;DHT22;11858;51.056;3.712;2022-09-01T10:03:54;42.20;43.10
23371;DHT22;11858;51.056;3.712;2022-09-01T10:06:38;42.40;41.90
23371;DHT22;11858;51.056;3.712;2022-09-01T10:09:08;42.60;41.50
23371;DHT22;11858;51.056;3.712;2022-09-01T10:11:44;42.20;41.20
23371;DHT22;11858;51.056;3.712;2022-09-01T10:14:18;41.70;41.70
23371;DHT22;11858;51.056;3.712;2022-09-01T10:16:47;41.90;41.60
23371;DHT22;11858;51.056;3.712;2022-09-01T10:19:15;42.40;41.10
23371;DHT22;11858;51.056;3.712;2022-09-01T10:21:42;42.90;40.50
23371;DHT22;11858;51.056;3.712;2022-09-01T10:24:13;43.10;39.70
23371;DHT22;11858;51.056;3.712;2022-09-01T10:26:41;43.50;39.30
23371;DHT22;11858;51.056;3.712;2022-09-01T10:29:15;43.30;38.50
23371;DHT22;11858;51.056;3.712;2022-09-01T10:31:43;42.90;38.40
23371;DHT22;11858;51.056;3.712;2022-09-01T10:34:16;42.60;38.60
23371;DHT22;11858;51.056;3.712;2022-09-01T10:36:45;43.00;38.50
23371;DHT22;11858;51.056;3.712;2022-09-01T10:39:13;43.20;38.10
23371;DHT22;11858;51.056;3.712;2022-09-01T10:41:43;43.30;38.10
23371;DHT22;11858;51.056;3.712;2022-09-01T10:44:17;43.30;37.80
23371;DHT22;11858;51.056;3.712;2022-09-01T10:46:44;43.20;37.50
23371;DHT22;11858;51.056;3.712;2022-09-01T10:51:47;43.90;37.20
23371;DHT22;11858;51.056;3.712;2022-09-01T10:58:14;44.10;36.70
23371;DHT22;11858;51.056;3.712;2022-09-01T11:05:57;43.90;35.80
23371;DHT22;11858;51.056;3.712;2022-09-01T11:13:44;41.90;37.60
23371;DHT22;11858;51.056;3.712;2022-09-01T11:16:37;41.20;38.40
23371;DHT22;11858;51.056;3.712;2022-09-01T11:24:44;40.90;39.00
23371;DHT22;11858;51.056;3.712;2022-09-01T11:30:33;42.50;37.70
23371;DHT22;11858;51.056;3.712;2022-09-01T11:36:23;43.40;36.90
23371;DHT22;11858;51.056;3.712;2022-09-01T11:39:02;42.80;37.10
23371;DHT22;11858;51.056;3.712;2022-09-01T11:47:29;42.00;37.30
23371;DHT22;11858;51.056;3.712;2022-09-01T11:49:57;41.90;37.30
23371;DHT22;11858;51.056;3.712;2022-09-01T11:52:28;41.70;37.50
23371;DHT22;11858;51.056;3.712;2022-09-01T11:54:55;41.50;37.80
23371;DHT22;11858;51.056;3.712;2022-09-01T11:59:54;42.30;37.40
23371;DHT22;11858;51.056;3.712;2022-09-01T12:02:31;42.70;37.10
23371;DHT22;11858;51.056;3.712;2022-09-01T12:05:00;42.60;36.70
23371;DHT22;11858;51.056;3.712;2022-09-01T12:07:37;42.20;36.60
23371;DHT22;11858;51.056;3.712;2022-09-01T12:10:13;41.60;37.30
23371;DHT22;11858;51.056;3.712;2022-09-01T12:12:39;41.70;37.10
23371;DHT22;11858;51.056;3.712;2022-09-01T12:15:22;41.90;36.40
23371;DHT22;11858;51.056;3.712;2022-09-01T12:17:48;42.30;36.50
23371;DHT22;11858;51.056;3.712;2022-09-01T12:20:29;42.50;36.10
23371;DHT22;11858;51.056;3.712;2022-09-01T12:22:58;43.20;35.20
23371;DHT22;11858;51.056;3.712;2022-09-01T12:25:33;43.40;35.20
23371;DHT22;11858;51.056;3.712;2022-09-01T12:28:01;44.00;34.60
23371;DHT22;11858;51.056;3.712;2022-09-01T12:30:28;44.20;33.80
23371;DHT22;11858;51.056;3.712;2022-09-01T12:32:57;44.70;33.80
23371;DHT22;11858;51.056;3.712;2022-09-01T12:35:25;45.10;33.40
23371;DHT22;11858;51.056;3.712;2022-09-01T12:37:52;45.50;33.30
23371;DHT22;11858;51.056;3.712;2022-09-01T12:40:38;45.40;33.30
23371;DHT22;11858;51.056;3.712;2022-09-01T12:43:04;45.20;32.80
23371;DHT22;11858;51.056;3.712;2022-09-01T12:45:42;45.00;33.20
23371;DHT22;11858;51.056;3.712;2022-09-01T12:48:29;44.90;33.50
23371;DHT22;11858;51.056;3.712;2022-09-01T12:51:19;44.70;32.70
23371;DHT22;11858;51.056;3.712;2022-09-01T12:53:58;43.30;33.40
23371;DHT22;11858;51.056;3.712;2022-09-01T12:56:31;42.00;35.20
23371;DHT22;11858;51.056;3.712;2022-09-01T12:59:23;41.80;35.60
23371;DHT22;11858;51.056;3.712;2022-09-01T13:01:49;42.90;34.70
23371;DHT22;11858;51.056;3.712;2022-09-01T13:04:24;42.70;34.30
23371;DHT22;11858;51.056;3.712;2022-09-01T13:06:51;41.90;34.80
23371;DHT22;11858;51.056;3.712;2022-09-01T13:09:17;41.20;35.50
23371;DHT22;11858;51.056;3.712;2022-09-01T13:11:43;41.10;36.50
23371;DHT22;11858;51.056;3.712;2022-09-01T13:14:12;41.00;35.50
23371;DHT22;11858;51.056;3.712;2022-09-01T13:16:38;41.20;35.30
23371;DHT22;11858;51.056;3.712;2022-09-01T13:19:04;40.90;35.90
23371;DHT22;11858;51.056;3.712;2022-09-01T13:21:32;40.70;35.60
23371;DHT22;11858;51.056;3.712;2022-09-01T13:24:03;40.70;35.90
23371;DHT22;11858;51.056;3.712;2022-09-01T13:26:30;40.80;35.40
23371;DHT22;11858;51.056;3.712;2022-09-01T13:28:57;41.10;35.70
23371;DHT22;11858;51.056;3.712;2022-09-01T13:31:24;41.30;35.80
23371;DHT22;11858;51.056;3.712;2022-09-01T13:33:50;41.30;35.10
23371;DHT22;11858;51.056;3.712;2022-09-01T13:36:16;41.20;35.10
23371;DHT22;11858;51.056;3.712;2022-09-01T13:38:42;40.30;35.50
23371;DHT22;11858;51.056;3.712;2022-09-01T13:41:09;39.40;36.40
23371;DHT22;11858;51.056;3.712;2022-09-01T13:43:35;38.90;37.20
23371;DHT22;11858;51.056;3.712;2022-09-01T13:46:01;38.90;37.20
23371;DHT22;11858;51.056;3.712;2022-09-01T13:48:27;38.60;37.40
23371;DHT22;11858;51.056;3.712;2022-09-01T13:50:54;38.00;38.10
23371;DHT22;11858;51.056;3.712;2022-09-01T13:53:20;37.50;38.20
23371;DHT22;11858;51.056;3.712;2022-09-01T13:55:47;37.20;38.70
23371;DHT22;11858;51.056;3.712;2022-09-01T13:58:13;37.80;38.20
23371;DHT22;11858;51.056;3.712;2022-09-01T14:00:43;38.60;37.60
23371;DHT22;11858;51.056;3.712;2022-09-01T14:03:16;38.30;37.80
23371;DHT22;11858;51.056;3.712;2022-09-01T14:05:46;38.30;38.10
23371;DHT22;11858;51.056;3.712;2022-09-01T14:08:15;38.80;37.70
23371;DHT22;11858;51.056;3.712;2022-09-01T14:10:43;39.30;37.20
23371;DHT22;11858;51.056;3.712;2022-09-01T14:13:10;39.70;36.50
23371;DHT22;11858;51.056;3.712;2022-09-01T14:15:37;39.80;35.80
23371;DHT22;11858;51.056;3.712;2022-09-01T14:18:04;40.10;35.60
23371;DHT22;11858;51.056;3.712;2022-09-01T14:20:33;40.20;35.30
23371;DHT22;11858;51.056;3.712;2022-09-01T14:23:01;40.30;36.00
23371;DHT22;11858;51.056;3.712;2022-09-01T14:25:30;40.40;35.20
23371;DHT22;11858;51.056;3.712;2022-09-01T14:27:58;40.50;35.70
23371;DHT22;11858;51.056;3.712;2022-09-01T14:30:26;41.00;35.20
23371;DHT22;11858;51.056;3.712;2022-09-01T14:32:52;41.50;35.00
23371;DHT22;11858;51.056;3.712;2022-09-01T14:35:20;42.10;34.20
23371;DHT22;11858;51.056;3.712;2022-09-01T14:37:49;42.20;33.90
23371;DHT22;11858;51.056;3.712;2022-09-01T14:40:16;41.90;34.80
23371;DHT22;11858;51.056;3.712;2022-09-01T14:42:46;40.50;35.30
23371;DHT22;11858;51.056;3.712;2022-09-01T14:45:14;39.10;36.40
23371;DHT22;11858;51.056;3.712;2022-09-01T14:47:44;38.80;37.20
23371;DHT22;11858;51.056;3.712;2022-09-01T14:50:11;39.00;37.00
23371;DHT22;11858;51.056;3.712;2022-09-01T14:52:38;39.10;36.70
23371;DHT22;11858;51.056;3.712;2022-09-01T14:55:04;39.30;36.40
23371;DHT22;11858;51.056;3.712;2022-09-01T14:57:30;39.50;36.40
23371;DHT22;11858;51.056;3.712;2022-09-01T14:59:57;39.70;36.40
23371;DHT22;11858;51.056;3.712;2022-09-01T15:02:23;39.70;35.60
23371;DHT22;11858;51.056;3.712;2022-09-01T15:04:51;39.50;36.00
23371;DHT22;11858;51.056;3.712;2022-09-01T15:07:18;39.90;36.00
23371;DHT22;11858;51.056;3.712;2022-09-01T15:09:44;39.60;36.10
23371;DHT22;11858;51.056;3.712;2022-09-01T15:12:16;39.40;36.40
23371;DHT22;11858;51.056;3.712;2022-09-01T15:14:42;39.70;37.00
23371;DHT22;11858;51.056;3.712;2022-09-01T15:17:08;39.50;36.20
23371;DHT22;11858;51.056;3.712;2022-09-01T15:19:35;39.30;36.50
23371;DHT22;11858;51.056;3.712;2022-09-01T15:22:02;38.90;36.70
23371;DHT22;11858;51.056;3.712;2022-09-01T15:24:32;38.10;38.00
23371;DHT22;11858;51.056;3.712;2022-09-01T15:26:58;36.70;38.50
23371;DHT22;11858;51.056;3.712;2022-09-01T15:29:24;35.60;39.90
23371;DHT22;11858;51.056;3.712;2022-09-01T15:31:49;34.90;40.90
23371;DHT22;11858;51.056;3.712;2022-09-01T15:34:15;34.80;41.00
23371;DHT22;11858;51.056;3.712;2022-09-01T15:36:43;34.70;41.50
23371;DHT22;11858;51.056;3.712;2022-09-01T15:39:10;34.00;42.00
23371;DHT22;11858;51.056;3.712;2022-09-01T15:41:36;33.60;42.80
23371;DHT22;11858;51.056;3.712;2022-09-01T15:44:05;33.50;44.00
23371;DHT22;11858;51.056;3.712;2022-09-01T15:46:34;34.10;43.00
23371;DHT22;11858;51.056;3.712;2022-09-01T15:49:03;35.20;42.20
23371;DHT22;11858;51.056;3.712;2022-09-01T15:51:49;36.20;41.30
23371;DHT22;11858;51.056;3.712;2022-09-01T15:54:17;36.50;39.40
23371;DHT22;11858;51.056;3.712;2022-09-01T15:56:44;36.70;38.90
23371;DHT22;11858;51.056;3.712;2022-09-01T15:59:12;36.40;39.10
23371;DHT22;11858;51.056;3.712;2022-09-01T16:01:41;36.60;39.30
23371;DHT22;11858;51.056;3.712;2022-09-01T16:04:09;36.20;39.20
23371;DHT22;11858;51.056;3.712;2022-09-01T16:06:40;35.70;39.20
23371;DHT22;11858;51.056;3.712;2022-09-01T16:09:11;35.20;39.60
23371;DHT22;11858;51.056;3.712;2022-09-01T16:11:40;34.90;40.70
23371;DHT22;11858;51.056;3.712;2022-09-01T16:14:07;34.50;40.60
23371;DHT22;11858;51.056;3.712;2022-09-01T16:19:20;34.30;41.40
23371;DHT22;11858;51.056;3.712;2022-09-01T16:24:25;34.00;41.90
23371;DHT22;11858;51.056;3.712;2022-09-01T16:26:52;33.80;41.80
23371;DHT22;11858;51.056;3.712;2022-09-01T16:31:54;33.30;43.10
23371;DHT22;11858;51.056;3.712;2022-09-01T16:34:20;32.90;43.40
23371;DHT22;11858;51.056;3.712;2022-09-01T16:42:34;32.30;43.70
23371;DHT22;11858;51.056;3.712;2022-09-01T16:50:43;31.50;44.50
23371;DHT22;11858;51.056;3.712;2022-09-01T16:58:43;31.60;44.90
23371;DHT22;11858;51.056;3.712;2022-09-01T17:01:24;31.40;45.90
23371;DHT22;11858;51.056;3.712;2022-09-01T17:10:39;30.40;46.00
23371;DHT22;11858;51.056;3.712;2022-09-01T17:15:47;29.70;47.00
23371;DHT22;11858;51.056;3.712;2022-09-01T17:24:35;29.30;48.20
23371;DHT22;11858;51.056;3.712;2022-09-01T17:27:10;29.00;48.40
23371;DHT22;11858;51.056;3.712;2022-09-01T17:29:48;28.90;48.60